Time;durP1;ratioP1;P1;durP2;ratioP2;P2;SDS_P1;SDS_P2;PMS_P1;PMS_P2;Temp;Humidity;BMP_temperature;BMP_pressure;BME280_temperature;BME280_humidity;BME280_pressure;Samples;Min_cycle;Max_cycle;Signal;HPM_P1;HPM_P2
2022/04/07 00:00:48;;;;;;;14.35;9.13;;;9.50;99.90;;;;;;4963019;28;90055;-32
2022/04/07 00:03:14;;;;;;;9.50;8.65;;;9.60;99.90;;;;;;4981198;28;89909;-36
2022/04/07 00:05:40;;;;;;;7.97;7.22;;;9.60;99.90;;;;;;4980735;28;90245;-35
2022/04/07 00:08:05;;;;;;;9.82;8.73;;;9.60;99.90;;;;;;4980224;28;90943;-33
2022/04/07 00:10:32;;;;;;;10.93;8.57;;;9.70;99.90;;;;;;4981000;28;90320;-32
2022/04/07 00:12:58;;;;;;;11.23;8.07;;;9.70;99.90;;;;;;4980415;28;89501;-32
2022/04/07 00:15:23;;;;;;;9.38;8.57;;;9.70;99.90;;;;;;4980973;28;88898;-36
2022/04/07 00:17:49;;;;;;;8.90;8.00;;;9.60;99.90;;;;;;4980516;28;89814;-31
2022/04/07 00:20:16;;;;;;;8.75;7.95;;;9.50;99.90;;;;;;4980831;28;89844;-33
2022/04/07 00:22:42;;;;;;;9.40;8.50;;;9.40;99.90;;;;;;4980428;28;90032;-33
2022/04/07 00:25:08;;;;;;;8.73;7.95;;;9.40;99.90;;;;;;5032670;22;90551;-35
2022/04/07 00:27:33;;;;;;;13.73;8.88;;;9.30;99.90;;;;;;4980937;28;89879;-32
2022/04/07 00:29:59;;;;;;;9.27;8.38;;;9.40;99.90;;;;;;4980914;28;89348;-32
2022/04/07 00:32:24;;;;;;;10.27;9.10;;;9.30;99.90;;;;;;4979952;28;89333;-34
2022/04/07 00:34:54;;;;;;;10.15;9.25;;;9.30;99.90;;;;;;4980800;28;90593;-36
2022/04/07 00:37:24;;;;;;;9.90;8.95;;;9.30;99.90;;;;;;4980556;28;89800;-36
2022/04/07 00:39:52;;;;;;;11.05;10.15;;;9.20;99.90;;;;;;4980663;28;89295;-33
2022/04/07 00:42:18;;;;;;;;;;;9.30;99.90;;;;;;4981190;28;88266;-32
2022/04/07 00:44:44;;;;;;;11.32;10.35;;;9.20;99.90;;;;;;4981536;28;90791;-33
2022/04/07 00:47:10;;;;;;;11.23;9.45;;;9.30;99.90;;;;;;4979794;28;90286;-32
2022/04/07 00:49:36;;;;;;;10.95;9.95;;;9.30;99.90;;;;;;4980589;28;89741;-34
2022/04/07 00:52:02;;;;;;;11.70;10.35;;;9.40;99.90;;;;;;4980406;28;88585;-32
2022/04/07 00:54:29;;;;;;;12.40;10.63;;;9.40;99.90;;;;;;4979886;28;90318;-34
2022/04/07 00:56:56;;;;;;;12.75;10.50;;;9.50;99.90;;;;;;4978695;28;90714;-35
2022/04/07 00:59:23;;;;;;;11.18;10.15;;;9.40;99.90;;;;;;4979150;28;90787;-33
2022/04/07 01:01:49;;;;;;;11.45;10.45;;;9.40;99.90;;;;;;4979652;28;89050;-34
2022/04/07 01:04:15;;;;;;;13.43;10.23;;;9.50;99.90;;;;;;4979511;28;90358;-35
2022/04/07 01:06:47;;;;;;;14.35;10.32;;;9.50;99.90;;;;;;4977977;28;89689;-36
2022/04/07 01:09:14;;;;;;;9.77;8.80;;;9.50;99.90;;;;;;4979454;28;89229;-36
2022/04/07 01:11:40;;;;;;;9.97;8.97;;;9.50;99.90;;;;;;4979651;28;89813;-36
2022/04/07 01:14:06;;;;;;;10.50;9.60;;;9.40;99.90;;;;;;4980242;28;90113;-33
2022/04/07 01:16:32;;;;;;;12.43;9.32;;;9.40;99.90;;;;;;4978395;28;90048;-35
2022/04/07 01:18:59;;;;;;;13.55;10.95;;;9.40;99.90;;;;;;4979944;28;90315;-33
2022/04/07 01:21:26;;;;;;;10.05;9.05;;;9.40;99.90;;;;;;4979142;28;89172;-34
2022/04/07 01:24:03;;;;;;;10.00;9.00;;;9.30;99.90;;;;;;4978840;28;89375;-33
2022/04/07 01:26:47;;;;;;;10.80;7.90;;;9.40;99.90;;;;;;4979982;28;89848;-34
2022/04/07 01:29:15;;;;;;;10.98;9.00;;;9.40;99.90;;;;;;4979300;28;90179;-34
2022/04/07 01:31:42;;;;;;;12.40;9.32;;;9.40;99.90;;;;;;4979909;28;88970;-33
2022/04/07 01:34:12;;;;;;;10.55;9.43;;;9.40;99.90;;;;;;4979801;28;90272;-35
2022/04/07 01:36:41;;;;;;;10.20;8.88;;;9.40;99.90;;;;;;4979153;28;89729;-34
2022/04/07 01:39:09;;;;;;;10.93;8.93;;;9.40;99.90;;;;;;4979582;28;89354;-33
2022/04/07 01:41:39;;;;;;;11.73;8.63;;;9.40;99.90;;;;;;4980211;28;89437;-37
2022/04/07 01:44:07;;;;;;;9.52;8.60;;;9.40;99.90;;;;;;4979894;28;90394;-33
2022/04/07 01:46:34;;;;;;;12.90;9.13;;;9.40;99.90;;;;;;4979338;28;90799;-37
2022/04/07 01:49:01;;;;;;;10.25;7.07;;;9.40;99.90;;;;;;4979294;28;90391;-35
2022/04/07 01:51:28;;;;;;;10.93;8.52;;;9.40;99.90;;;;;;4979115;28;88106;-34
2022/04/07 01:53:54;;;;;;;7.53;6.93;;;9.40;99.90;;;;;;4979585;28;90344;-34
2022/04/07 01:56:20;;;;;;;8.00;7.03;;;9.40;99.90;;;;;;4979931;28;90029;-36
2022/04/07 01:58:47;;;;;;;8.27;6.88;;;9.40;99.90;;;;;;4978890;28;89577;-36
2022/04/07 02:01:14;;;;;;;7.80;6.13;;;9.40;99.90;;;;;;4978867;28;88653;-35
2022/04/07 02:03:40;;;;;;;8.75;6.55;;;9.40;99.90;;;;;;4979258;28;89572;-34
2022/04/07 02:06:14;;;;;;;10.10;4.85;;;9.30;99.90;;;;;;4978793;28;89532;-35
2022/04/07 02:08:39;;;;;;;6.00;4.40;;;9.30;99.90;;;;;;4979866;28;89788;-33
2022/04/07 02:11:05;;;;;;;12.77;4.90;;;9.10;99.90;;;;;;4978574;28;90108;-35
2022/04/07 02:13:33;;;;;;;10.15;6.18;;;9.10;99.90;;;;;;4977895;28;88946;-37
2022/04/07 02:15:59;;;;;;;9.02;5.15;;;9.00;99.90;;;;;;4978949;28;89714;-34
2022/04/07 02:18:24;;;;;;;8.27;6.00;;;8.90;99.90;;;;;;4982400;28;89186;-35
2022/04/07 02:20:50;;;;;;;8.73;6.32;;;8.90;99.90;;;;;;4982694;28;90075;-32
2022/04/07 02:23:15;;;;;;;13.57;6.70;;;8.90;99.90;;;;;;4982386;28;92640;-37
2022/04/07 02:25:41;;;;;;;9.50;5.68;;;8.90;99.90;;;;;;4981969;28;91197;-34
2022/04/07 02:28:06;;;;;;;11.07;6.20;;;9.00;99.90;;;;;;4983387;28;89357;-33
2022/04/07 02:30:32;;;;;;;6.68;5.90;;;9.20;99.90;;;;;;4982415;28;88620;-32
2022/04/07 02:32:58;;;;;;;8.38;5.82;;;9.10;99.90;;;;;;4982467;28;90091;-34
2022/04/07 02:35:24;;;;;;;10.65;6.43;;;9.10;99.90;;;;;;4981447;28;91003;-36
2022/04/07 02:37:49;;;;;;;7.18;5.97;;;9.20;99.90;;;;;;4982618;28;90577;-34
2022/04/07 02:40:15;;;;;;;6.80;6.18;;;9.20;99.90;;;;;;4982732;28;90145;-33
2022/04/07 02:42:41;;;;;;;13.43;6.15;;;9.20;99.90;;;;;;4981967;28;89692;-33
2022/04/07 02:45:07;;;;;;;13.75;6.43;;;9.10;99.90;;;;;;4983147;28;88749;-33
2022/04/07 02:47:34;;;;;;;14.88;6.18;;;9.10;99.90;;;;;;4981766;28;89646;-34
2022/04/07 02:50:00;;;;;;;14.18;6.78;;;9.10;99.90;;;;;;4982636;28;88505;-36
2022/04/07 02:52:26;;;;;;;11.02;5.55;;;9.00;99.90;;;;;;4982879;28;90338;-32
2022/04/07 02:54:51;;;;;;;10.20;6.28;;;9.00;99.90;;;;;;4981663;28;89503;-35
2022/04/07 02:57:24;;;;;;;9.00;6.13;;;9.10;99.90;;;;;;4982427;28;89850;-35
2022/04/07 02:59:50;;;;;;;21.08;7.80;;;9.10;99.90;;;;;;4981414;28;89652;-36
2022/04/07 03:02:16;;;;;;;11.40;5.75;;;9.00;99.90;;;;;;4981333;28;90185;-35
2022/04/07 03:04:41;;;;;;;10.55;6.28;;;9.00;99.90;;;;;;4981950;28;89360;-34
2022/04/07 03:07:07;;;;;;;20.35;7.30;;;9.00;99.90;;;;;;4981996;28;89099;-33
2022/04/07 03:09:32;;;;;;;10.75;6.80;;;9.00;99.90;;;;;;4981862;28;87519;-33
2022/04/07 03:11:58;;;;;;;11.50;6.65;;;9.10;99.90;;;;;;4981650;28;92969;-33
2022/04/07 03:14:27;;;;;;;10.73;7.10;;;9.10;99.90;;;;;;4982218;28;94107;-36
2022/04/07 03:16:53;;;;;;;14.93;6.90;;;9.10;99.90;;;;;;4981761;28;88963;-33
2022/04/07 03:19:18;;;;;;;10.25;6.07;;;9.10;99.90;;;;;;4982157;28;88978;-37
2022/04/07 03:21:44;;;;;;;11.45;5.85;;;9.20;99.90;;;;;;4981719;28;89076;-36
2022/04/07 03:24:10;;;;;;;10.20;5.57;;;9.20;99.90;;;;;;4980333;28;89839;-34
2022/04/07 03:26:38;;;;;;;14.45;5.85;;;9.20;99.90;;;;;;4981506;28;90098;-37
2022/04/07 03:29:03;;;;;;;8.30;5.75;;;9.10;99.90;;;;;;4981605;28;89996;-34
2022/04/07 03:31:29;;;;;;;11.32;6.53;;;9.10;99.90;;;;;;4981749;28;90358;-33
2022/04/07 03:33:54;;;;;;;11.98;6.63;;;9.00;99.90;;;;;;4981420;28;92817;-36
2022/04/07 03:36:20;;;;;;;15.02;6.90;;;9.00;99.90;;;;;;4980634;28;92803;-33
2022/04/07 03:38:46;;;;;;;12.73;5.72;;;9.00;99.90;;;;;;4981363;28;89535;-36
2022/04/07 03:41:11;;;;;;;9.50;6.60;;;8.90;99.90;;;;;;4981351;28;89650;-34
2022/04/07 03:43:37;;;;;;;9.73;6.00;;;8.90;99.90;;;;;;4981380;28;93117;-36
2022/04/07 03:46:02;;;;;;;9.68;5.00;;;8.80;99.90;;;;;;4981827;28;90388;-33
2022/04/07 03:48:28;;;;;;;5.63;4.03;;;8.90;99.90;;;;;;4980817;28;90535;-34
2022/04/07 03:50:56;;;;;;;8.45;5.78;;;8.90;99.90;;;;;;4981222;28;90164;-33
2022/04/07 03:53:22;;;;;;;12.35;6.85;;;8.90;99.90;;;;;;4982133;28;89435;-33
2022/04/07 03:55:47;;;;;;;7.70;6.22;;;8.80;99.90;;;;;;4981100;28;90384;-34
2022/04/07 03:58:13;;;;;;;7.80;5.57;;;8.70;99.90;;;;;;4981599;28;89771;-35
2022/04/07 04:00:38;;;;;;;12.13;5.57;;;8.70;99.90;;;;;;4980313;28;90044;-34
2022/04/07 04:03:04;;;;;;;7.65;5.05;;;8.70;99.90;;;;;;4981238;28;90578;-36
2022/04/07 04:05:29;;;;;;;8.65;4.78;;;8.80;99.90;;;;;;4981332;28;89534;-32
2022/04/07 04:07:56;;;;;;;10.68;6.57;;;8.70;99.90;;;;;;4981024;28;90974;-34
2022/04/07 04:10:23;;;;;;;7.60;5.57;;;8.70;99.90;;;;;;4980728;28;90101;-35
2022/04/07 04:12:49;;;;;;;9.48;6.47;;;8.60;99.90;;;;;;4980775;28;91607;-33
2022/04/07 04:15:14;;;;;;;14.13;5.57;;;8.60;99.90;;;;;;4981523;28;89396;-33
2022/04/07 04:17:40;;;;;;;7.53;4.03;;;8.70;99.90;;;;;;4981041;28;88232;-36
2022/04/07 04:20:06;;;;;;;11.32;4.75;;;8.70;99.90;;;;;;4979196;28;88932;-32
2022/04/07 04:22:31;;;;;;;10.32;4.57;;;8.80;99.90;;;;;;4981309;28;89014;-34
2022/04/07 04:24:57;;;;;;;8.38;6.15;;;8.80;99.90;;;;;;4980428;28;89596;-32
2022/04/07 04:27:23;;;;;;;22.13;7.55;;;8.80;99.90;;;;;;4981680;28;88278;-32
2022/04/07 04:29:48;;;;;;;14.45;6.45;;;8.80;99.90;;;;;;4980673;28;90515;-34
2022/04/07 04:32:14;;;;;;;13.82;6.88;;;8.80;99.90;;;;;;4980369;28;89734;-37
2022/04/07 04:34:39;;;;;;;15.10;6.47;;;8.80;99.90;;;;;;4980638;28;89289;-33
2022/04/07 04:37:05;;;;;;;16.42;6.70;;;8.70;99.90;;;;;;4980304;28;90101;-34
2022/04/07 04:39:30;;;;;;;22.02;7.43;;;8.80;99.90;;;;;;4979585;28;91311;-35
2022/04/07 04:41:56;;;;;;;16.30;6.85;;;8.70;99.90;;;;;;4978756;28;89740;-35
2022/04/07 04:44:22;;;;;;;13.52;6.95;;;8.70;99.90;;;;;;4980914;28;89565;-35
2022/04/07 04:46:47;;;;;;;17.67;7.38;;;8.70;99.90;;;;;;4980136;28;88678;-33
2022/04/07 04:49:13;;;;;;;13.30;7.38;;;8.70;99.90;;;;;;4980460;28;90463;-33
2022/04/07 04:51:38;;;;;;;14.63;5.47;;;8.70;99.90;;;;;;4979984;28;89946;-34
2022/04/07 04:54:04;;;;;;;12.00;5.95;;;8.60;99.90;;;;;;4979909;28;89729;-35
2022/04/07 04:56:29;;;;;;;12.63;5.15;;;8.80;99.90;;;;;;4980930;28;89009;-34
2022/04/07 04:58:57;;;;;;;15.63;6.55;;;8.80;99.90;;;;;;4979820;28;89835;-33
2022/04/07 05:01:23;;;;;;;13.13;6.85;;;8.80;99.90;;;;;;4979464;28;90619;-37
2022/04/07 05:03:49;;;;;;;17.65;7.93;;;8.70;99.90;;;;;;4980609;28;90520;-36
2022/04/07 05:06:14;;;;;;;18.92;7.20;;;8.70;99.90;;;;;;4979931;28;88153;-35
2022/04/07 05:08:40;;;;;;;17.80;7.38;;;8.60;99.90;;;;;;4979658;28;90298;-35
2022/04/07 05:11:05;;;;;;;16.95;7.40;;;8.60;99.90;;;;;;4980202;28;93965;-32
2022/04/07 05:13:31;;;;;;;16.75;7.95;;;8.70;99.90;;;;;;4980011;28;89862;-35
2022/04/07 05:15:57;;;;;;;11.60;7.13;;;8.70;99.90;;;;;;4980426;28;88991;-32
2022/04/07 05:18:22;;;;;;;21.45;8.30;;;8.70;99.90;;;;;;4979636;28;89210;-35
2022/04/07 05:20:48;;;;;;;17.83;7.80;;;8.70;99.90;;;;;;4979612;28;89810;-36
2022/04/07 05:23:13;;;;;;;16.02;7.43;;;8.70;99.90;;;;;;4979406;28;89035;-33
2022/04/07 05:25:39;;;;;;;15.70;7.97;;;8.60;99.90;;;;;;4979786;28;89919;-36
2022/04/07 05:28:04;;;;;;;17.63;8.38;;;8.80;99.90;;;;;;4979304;28;90801;-34
2022/04/07 05:30:30;;;;;;;13.57;7.55;;;8.70;99.90;;;;;;4979687;28;89657;-33
2022/04/07 05:32:56;;;;;;;21.98;7.65;;;8.70;99.90;;;;;;4979044;28;90555;-35
2022/04/07 05:35:26;;;;;;;12.85;6.97;;;8.70;99.90;;;;;;4979267;28;89423;-34
2022/04/07 05:37:57;;;;;;;16.65;7.00;;;8.70;99.90;;;;;;4979396;28;90356;-32
2022/04/07 05:40:23;;;;;;;15.70;7.32;;;8.70;99.90;;;;;;4977980;28;89989;-35
2022/04/07 05:42:49;;;;;;;11.20;5.25;;;8.70;99.90;;;;;;4979469;28;89570;-35
2022/04/07 05:45:14;;;;;;;15.95;6.78;;;8.70;99.90;;;;;;4980136;28;88000;-33
2022/04/07 05:47:41;;;;;;;6.95;4.63;;;8.70;99.90;;;;;;4978893;28;93376;-34
2022/04/07 05:50:07;;;;;;;14.73;6.22;;;8.70;99.90;;;;;;4979361;28;90660;-33
2022/04/07 05:52:33;;;;;;;10.82;6.00;;;8.70;99.90;;;;;;4979287;28;91342;-33
2022/04/07 05:54:58;;;;;;;13.98;6.68;;;8.70;99.90;;;;;;4979424;28;90180;-33
2022/04/07 05:57:30;;;;;;;6.97;5.95;;;8.70;99.90;;;;;;4979760;28;89988;-33
2022/04/07 06:00:11;;;;;;;16.20;6.80;;;8.70;99.90;;;;;;4979896;28;89633;-32
2022/04/07 06:02:38;;;;;;;10.93;6.45;;;8.70;99.90;;;;;;4979334;28;89565;-34
2022/04/07 06:05:05;;;;;;;14.77;4.80;;;8.60;99.90;;;;;;4980364;28;88423;-34
2022/04/07 06:07:31;;;;;;;14.07;5.78;;;8.70;99.90;;;;;;4979267;28;91141;-34
2022/04/07 06:09:56;;;;;;;15.70;6.35;;;8.80;99.90;;;;;;4978848;28;89645;-34
2022/04/07 06:12:22;;;;;;;9.85;6.00;;;8.70;99.90;;;;;;4978883;28;91718;-33
2022/04/07 06:14:47;;;;;;;8.10;5.03;;;8.70;99.90;;;;;;4978278;28;88916;-32
2022/04/07 06:17:13;;;;;;;14.07;5.13;;;8.70;99.90;;;;;;4979556;28;90398;-34
2022/04/07 06:19:39;;;;;;;11.40;5.65;;;8.80;99.90;;;;;;4978855;28;89715;-33
2022/04/07 06:22:07;;;;;;;3.10;1.30;;;8.60;99.90;;;;;;4978806;28;87952;-36
2022/04/07 06:24:33;;;;;;;6.38;1.77;;;8.00;99.90;;;;;;4979540;28;88321;-35
2022/04/07 06:26:59;;;;;;;2.00;0.93;;;7.40;99.90;;;;;;4978446;28;90420;-35
2022/04/07 06:29:24;;;;;;;4.10;1.23;;;7.00;99.90;;;;;;4979364;28;90256;-34
2022/04/07 06:31:50;;;;;;;1.35;0.90;;;6.90;99.90;;;;;;4979166;28;89925;-33
2022/04/07 06:34:15;;;;;;;1.77;1.10;;;6.70;99.90;;;;;;4978842;28;88754;-34
2022/04/07 06:36:41;;;;;;;1.58;0.98;;;6.60;99.90;;;;;;4978535;28;90687;-32
2022/04/07 06:39:06;;;;;;;3.90;0.80;;;6.40;99.90;;;;;;4976281;28;97971;-33
2022/04/07 06:41:33;;;;;;;3.38;1.63;;;6.40;99.90;;;;;;4979309;28;93642;-35
2022/04/07 06:43:59;;;;;;;3.33;1.40;;;6.30;99.90;;;;;;4979086;28;88599;-34
2022/04/07 06:46:25;;;;;;;2.42;1.60;;;6.20;99.90;;;;;;4978490;28;89242;-34
2022/04/07 06:48:50;;;;;;;4.53;1.58;;;6.20;99.90;;;;;;4978713;28;89730;-32
2022/04/07 06:51:16;;;;;;;4.47;1.52;;;6.00;99.90;;;;;;4978410;28;89665;-34
2022/04/07 06:53:42;;;;;;;2.25;1.30;;;5.80;99.90;;;;;;4979419;28;89494;-36
2022/04/07 06:56:08;;;;;;;2.95;1.45;;;5.90;99.90;;;;;;4977483;28;90311;-34
2022/04/07 06:58:34;;;;;;;1.27;1.15;;;5.80;99.90;;;;;;4978598;28;89881;-37
2022/04/07 07:00:59;;;;;;;2.20;0.80;;;5.70;99.90;;;;;;4978999;28;91181;-32
2022/04/07 07:03:27;;;;;;;3.53;1.40;;;5.80;99.90;;;;;;4978078;28;90631;-32
2022/04/07 07:05:58;;;;;;;1.13;1.02;;;5.80;99.90;;;;;;4981941;28;90216;-34
2022/04/07 07:08:24;;;;;;;1.75;1.35;;;5.70;99.90;;;;;;4981729;28;89213;-35
2022/04/07 07:10:50;;;;;;;0.65;0.65;;;5.80;99.90;;;;;;4982041;28;90090;-35
2022/04/07 07:13:21;;;;;;;2.00;1.00;;;5.80;99.90;;;;;;4982122;28;89187;-35
2022/04/07 07:15:47;;;;;;;0.65;0.60;;;5.80;99.90;;;;;;4982151;28;92513;-33
2022/04/07 07:18:13;;;;;;;1.60;1.15;;;5.70;99.90;;;;;;4981741;28;89638;-32
2022/04/07 07:20:39;;;;;;;1.85;1.02;;;5.70;99.90;;;;;;4982499;28;88413;-33
2022/04/07 07:23:05;;;;;;;1.33;0.90;;;5.60;99.90;;;;;;4981648;28;89738;-32
2022/04/07 07:25:31;;;;;;;3.85;1.45;;;5.50;99.90;;;;;;4981131;28;90303;-33
2022/04/07 07:28:01;;;;;;;1.17;1.08;;;5.50;99.90;;;;;;4981584;28;90510;-33
2022/04/07 07:30:28;;;;;;;2.97;0.98;;;5.50;99.90;;;;;;4982178;28;90003;-31
2022/04/07 07:32:54;;;;;;;1.15;0.95;;;5.50;99.90;;;;;;4982008;28;89865;-33
2022/04/07 07:35:21;;;;;;;3.65;1.08;;;5.50;99.90;;;;;;4981487;28;90472;-36
2022/04/07 07:37:51;;;;;;;1.85;0.98;;;5.50;99.90;;;;;;4913166;28;89544;-33
2022/04/07 07:40:18;;;;;;;1.85;0.90;;;5.50;99.90;;;;;;4962672;28;90201;-33
2022/04/07 07:42:44;;;;;;;3.50;0.95;;;5.50;99.90;;;;;;4962216;28;89533;-34
2022/04/07 07:45:10;;;;;;;2.92;1.45;;;5.60;99.90;;;;;;4961828;28;90246;-36
2022/04/07 07:47:35;;;;;;;3.17;1.02;;;5.50;99.90;;;;;;4961246;28;89734;-31
2022/04/07 07:50:05;;;;;;;1.38;1.08;;;5.50;99.90;;;;;;4974044;28;89449;-32
2022/04/07 07:52:31;;;;;;;2.90;1.23;;;5.50;99.90;;;;;;4979022;28;89951;-33
2022/04/07 07:54:57;;;;;;;2.22;1.05;;;5.50;99.90;;;;;;4980708;28;90249;-33
2022/04/07 07:57:22;;;;;;;2.90;1.45;;;5.40;99.90;;;;;;4977444;28;89946;-35
2022/04/07 07:59:50;;;;;;;2.47;1.23;;;5.50;99.90;;;;;;4978532;28;89318;-35
2022/04/07 08:02:16;;;;;;;3.85;1.42;;;5.60;99.90;;;;;;4979443;28;89362;-35
2022/04/07 08:04:42;;;;;;;2.53;1.33;;;5.60;99.90;;;;;;4978219;28;89981;-31
2022/04/07 08:07:08;;;;;;;1.95;1.20;;;5.60;99.90;;;;;;4979077;28;89617;-34
2022/04/07 08:09:34;;;;;;;1.95;1.50;;;5.60;99.90;;;;;;4979996;28;89261;-35
2022/04/07 08:11:59;;;;;;;1.40;1.30;;;5.50;99.90;;;;;;4979459;28;89694;-33
2022/04/07 08:14:25;;;;;;;3.17;1.67;;;5.60;99.90;;;;;;4979693;28;90170;-32
2022/04/07 08:16:51;;;;;;;1.88;1.48;;;5.60;99.90;;;;;;4977377;28;90951;-36
2022/04/07 08:19:16;;;;;;;3.22;1.23;;;5.60;99.90;;;;;;4979131;28;90280;-34
2022/04/07 08:21:42;;;;;;;5.15;1.52;;;5.60;99.90;;;;;;4979208;28;89379;-33
2022/04/07 08:24:08;;;;;;;2.78;1.52;;;5.60;99.90;;;;;;4978903;28;90270;-36
2022/04/07 08:26:34;;;;;;;2.35;1.65;;;5.70;99.90;;;;;;4979244;28;90074;-32
2022/04/07 08:28:59;;;;;;;2.28;1.67;;;5.70;99.90;;;;;;4978871;28;90729;-34
2022/04/07 08:31:25;;;;;;;2.38;1.30;;;5.70;99.90;;;;;;4979076;28;88636;-32
2022/04/07 08:33:51;;;;;;;6.43;1.75;;;5.70;99.90;;;;;;4979173;28;90127;-33
2022/04/07 08:36:16;;;;;;;3.33;1.20;;;5.80;99.90;;;;;;4978861;28;89725;-37
2022/04/07 08:38:42;;;;;;;2.60;1.45;;;5.80;99.90;;;;;;4978475;28;88139;-32
2022/04/07 08:41:09;;;;;;;2.33;1.58;;;5.90;99.90;;;;;;4977397;28;88483;-32
2022/04/07 08:43:38;;;;;;;4.80;1.27;;;5.90;99.90;;;;;;4978601;28;90240;-35
2022/04/07 08:46:07;;;;;;;6.47;1.48;;;6.00;99.90;;;;;;4978969;28;89832;-34
2022/04/07 08:48:36;;;;;;;3.50;1.35;;;6.10;99.90;;;;;;4978804;28;89742;-35
2022/04/07 08:51:04;;;;;;;2.53;1.77;;;6.30;99.90;;;;;;4978673;28;90348;-32
2022/04/07 08:53:30;;;;;;;4.72;1.50;;;6.40;99.90;;;;;;4978139;28;90334;-35
2022/04/07 08:55:58;;;;;;;4.57;1.70;;;6.50;99.90;;;;;;4978290;28;90090;-32
2022/04/07 08:58:24;;;;;;;6.82;1.80;;;6.50;99.90;;;;;;4978294;28;89919;-36
2022/04/07 09:00:49;;;;;;;7.15;1.75;;;6.60;99.90;;;;;;4978350;28;88079;-33
2022/04/07 09:03:15;;;;;;;3.08;1.70;;;6.80;99.90;;;;;;4977622;28;89993;-34
2022/04/07 09:05:55;;;;;;;2.08;1.50;;;7.40;99.90;;;;;;4977981;28;90605;-37
2022/04/07 09:08:21;;;;;;;2.55;1.33;;;8.00;99.90;;;;;;4978195;28;90306;-35
2022/04/07 09:10:56;;;;;;;2.20;1.40;;;8.30;99.90;;;;;;4978196;28;89603;-35
2022/04/07 09:13:22;;;;;;;2.95;1.27;;;8.70;99.90;;;;;;4978002;28;90285;-37
2022/04/07 09:15:49;;;;;;;2.10;1.77;;;9.00;99.90;;;;;;4978003;28;89617;-32
2022/04/07 09:18:24;;;;;;;4.55;1.60;;;9.40;99.90;;;;;;4978267;28;90129;-35
2022/04/07 09:20:50;;;;;;;3.13;1.42;;;9.40;99.90;;;;;;4978468;28;90488;-33
2022/04/07 09:23:17;;;;;;;4.35;1.75;;;9.60;99.90;;;;;;4978435;28;89277;-34
2022/04/07 09:25:49;;;;;;;3.28;2.20;;;9.80;99.90;;;;;;4977183;28;89958;-33
2022/04/07 09:28:44;;;;;;;6.68;1.63;;;10.00;99.90;;;;;;4976640;28;89356;-33
2022/04/07 09:31:13;;;;;;;3.08;2.15;;;10.00;99.90;;;;;;4972198;28;90444;-32
2022/04/07 09:33:39;;;;;;;7.53;1.95;;;10.20;99.90;;;;;;4977491;28;90545;-34
2022/04/07 09:36:19;;;;;;;5.55;1.40;;;10.10;99.90;;;;;;4977831;28;90319;-35
2022/04/07 09:38:50;;;;;;;5.15;1.05;;;10.50;99.90;;;;;;4977310;28;90728;-37
2022/04/07 09:41:17;;;;;;;3.33;1.63;;;10.70;99.90;;;;;;4976408;28;89536;-34
2022/04/07 09:43:50;;;;;;;4.17;1.70;;;10.90;99.90;;;;;;4976933;28;89186;-37
2022/04/07 09:46:20;;;;;;;3.60;1.40;;;10.70;99.90;;;;;;4977372;28;89546;-33
2022/04/07 09:49:09;;;;;;;2.58;1.73;;;10.70;99.90;;;;;;4976963;28;90127;-33
2022/04/07 09:51:47;;;;;;;4.40;1.92;;;10.50;99.90;;;;;;4976847;28;89550;-35
2022/04/07 09:54:16;;;;;;;5.80;2.72;;;10.40;99.90;;;;;;4965559;28;90226;-35
2022/04/07 09:56:43;;;;;;;6.65;2.55;;;10.50;99.90;;;;;;4955579;28;89360;-36
2022/04/07 09:59:09;;;;;;;3.97;2.00;;;10.70;99.90;;;;;;4962404;28;90566;-36
2022/04/07 10:01:38;;;;;;;7.75;2.42;;;10.60;99.90;;;;;;4957182;28;89404;-34
2022/04/07 10:04:05;;;;;;;3.80;1.50;;;10.40;99.90;;;;;;4956532;28;90221;-35
2022/04/07 10:06:33;;;;;;;7.25;2.97;;;10.60;99.90;;;;;;4956355;28;88893;-33
2022/04/07 10:09:02;;;;;;;5.60;2.05;;;10.50;99.90;;;;;;4956679;28;89354;-34
2022/04/07 10:11:30;;;;;;;3.28;2.10;;;10.30;99.90;;;;;;4957592;28;89141;-33
2022/04/07 10:13:56;;;;;;;8.40;2.88;;;10.00;99.90;;;;;;4957327;28;90188;-37
2022/04/07 10:16:23;;;;;;;8.55;2.90;;;9.90;99.90;;;;;;4956979;28;89669;-35
2022/04/07 10:19:04;;;;;;;10.10;2.65;;;9.90;99.90;;;;;;4956423;28;89378;-36
2022/04/07 10:22:15;;;;;;;6.95;2.47;;;9.80;99.90;;;;;;4956680;28;90008;-32
2022/04/07 10:24:52;;;;;;;7.78;2.22;;;9.90;99.90;;;;;;4956446;28;89426;-35
2022/04/07 10:27:25;;;;;;;7.95;3.25;;;9.90;99.90;;;;;;4956849;28;89942;-33
2022/04/07 10:30:08;;;;;;;9.15;2.80;;;9.90;99.90;;;;;;4956421;28;88204;-34
2022/04/07 10:32:44;;;;;;;10.82;2.30;;;10.00;99.90;;;;;;4956397;28;89064;-33
2022/04/07 10:35:28;;;;;;;3.33;2.50;;;10.10;99.90;;;;;;4957158;28;90281;-36
2022/04/07 10:37:54;;;;;;;7.38;3.08;;;10.10;99.90;;;;;;4956548;28;88878;-34
2022/04/07 10:40:49;;;;;;;7.18;3.03;;;10.10;99.90;;;;;;4970670;28;89679;-36
2022/04/07 10:43:14;;;;;;;9.43;3.05;;;10.20;99.90;;;;;;4960091;28;89064;-33
2022/04/07 10:45:45;;;;;;;11.13;3.20;;;10.20;99.90;;;;;;4959398;28;90232;-35
2022/04/07 10:48:28;;;;;;;8.98;3.05;;;10.70;99.90;;;;;;4958937;28;90590;-34
2022/04/07 10:51:00;;;;;;;8.27;3.85;;;10.70;99.90;;;;;;4957923;28;91138;-34
2022/04/07 10:53:38;;;;;;;8.10;2.83;;;10.70;99.90;;;;;;4959449;28;88727;-36
2022/04/07 10:56:08;;;;;;;8.73;3.55;;;10.50;99.90;;;;;;4959808;28;90418;-36
2022/04/07 10:58:42;;;;;;;6.35;3.55;;;10.50;99.90;;;;;;4959847;28;91043;-37
2022/04/07 11:01:30;;;;;;;7.50;3.30;;;10.80;99.90;;;;;;4973474;28;90050;-32
2022/04/07 11:04:18;;;;;;;8.30;3.78;;;10.80;99.90;;;;;;4980055;28;88547;-33
2022/04/07 11:07:05;;;;;;;11.43;3.60;;;10.70;99.90;;;;;;4979654;28;90202;-34
2022/04/07 11:09:46;;;;;;;8.65;2.97;;;10.80;99.90;;;;;;4979595;28;89618;-33
2022/04/07 11:12:19;;;;;;;13.35;4.05;;;10.90;99.90;;;;;;4980124;28;90383;-34
2022/04/07 11:14:46;;;;;;;12.30;4.05;;;11.30;99.90;;;;;;4979464;28;90685;-37
2022/04/07 11:17:24;;;;;;;12.88;4.15;;;11.20;99.90;;;;;;4980009;28;90614;-34
2022/04/07 11:20:09;;;;;;;8.05;3.20;;;11.40;99.90;;;;;;4979687;28;90013;-33
2022/04/07 11:22:54;;;;;;;9.15;3.45;;;11.40;99.90;;;;;;4978861;28;89614;-36
2022/04/07 11:25:35;;;;;;;7.93;2.88;;;11.50;99.90;;;;;;4970479;28;88476;-33
2022/04/07 11:28:17;;;;;;;7.55;3.22;;;11.40;99.90;;;;;;4961112;28;90318;-34
2022/04/07 11:30:48;;;;;;;6.45;2.55;;;10.90;99.90;;;;;;4958458;28;94565;-37
2022/04/07 11:33:20;;;;;;;9.45;3.22;;;10.50;99.90;;;;;;4959002;28;94429;-34
2022/04/07 11:36:01;;;;;;;14.00;3.75;;;10.10;99.90;;;;;;4958999;28;92550;-33
2022/04/07 11:38:37;;;;;;;8.18;2.60;;;8.90;99.90;;;;;;4958967;28;93366;-36
2022/04/07 11:41:05;;;;;;;15.30;3.55;;;9.20;99.90;;;;;;4959044;28;95684;-32
2022/04/07 11:43:32;;;;;;;9.23;3.80;;;9.60;99.90;;;;;;4959003;28;95749;-35
2022/04/07 11:45:58;;;;;;;7.80;2.97;;;9.90;99.90;;;;;;4958925;28;94475;-33
2022/04/07 11:48:30;;;;;;;8.20;3.88;;;10.00;99.90;;;;;;4959172;28;92183;-33
2022/04/07 11:51:00;;;;;;;12.43;4.18;;;10.20;99.90;;;;;;4957925;28;94516;-36
2022/04/07 11:53:29;;;;;;;11.48;3.92;;;10.60;99.90;;;;;;4958470;28;94964;-32
2022/04/07 11:56:10;;;;;;;10.60;3.65;;;10.50;99.90;;;;;;4958318;28;94321;-33
2022/04/07 11:58:36;;;;;;;16.25;4.10;;;10.70;99.90;;;;;;4958447;28;93502;-35
2022/04/07 12:01:11;;;;;;;15.30;3.55;;;10.60;99.90;;;;;;4959252;28;94956;-37
2022/04/07 12:03:38;;;;;;;13.63;3.45;;;10.60;99.90;;;;;;4958582;28;94757;-36
2022/04/07 12:06:04;;;;;;;10.65;3.28;;;10.50;99.90;;;;;;4958322;28;94938;-33
2022/04/07 12:08:30;;;;;;;11.73;3.10;;;10.60;99.90;;;;;;4958430;28;92536;-34
2022/04/07 12:10:56;;;;;;;11.93;4.60;;;10.60;99.90;;;;;;4958599;28;94780;-34
2022/04/07 12:13:22;;;;;;;7.25;3.35;;;10.50;99.90;;;;;;4958376;28;94465;-35
2022/04/07 12:15:49;;;;;;;9.18;3.47;;;10.70;99.90;;;;;;4959502;28;93206;-35
2022/04/07 12:18:27;;;;;;;11.10;4.35;;;10.60;99.90;;;;;;4958151;28;94994;-33
2022/04/07 12:21:00;;;;;;;;;;;10.50;99.90;;;;;;4958477;28;95128;-33
2022/04/07 12:26:01;;;;;;;10.18;4.15;;;10.60;99.90;;;;;;4957646;28;93140;-33
2022/04/07 12:28:38;;;;;;;3.90;2.92;;;10.60;99.90;;;;;;4958814;28;92653;-34
2022/04/07 12:31:12;;;;;;;10.45;3.67;;;10.60;99.90;;;;;;4957832;28;96129;-31
2022/04/07 12:33:39;;;;;;;7.15;3.13;;;10.60;99.90;;;;;;4957794;28;96341;-38
2022/04/07 12:36:06;;;;;;;7.17;3.43;;;10.80;99.90;;;;;;4958617;28;92260;-36
2022/04/07 12:38:32;;;;;;;5.20;3.05;;;10.80;99.90;;;;;;4958988;28;93422;-33
2022/04/07 12:41:10;;;;;;;6.40;3.00;;;11.00;99.90;;;;;;4957382;28;95346;-33
2022/04/07 12:43:43;;;;;;;8.90;3.30;;;10.80;99.90;;;;;;4957896;28;94365;-35
2022/04/07 12:46:09;;;;;;;9.63;3.35;;;10.90;99.90;;;;;;4958121;28;92562;-36
2022/04/07 12:48:35;;;;;;;5.28;3.08;;;10.90;99.90;;;;;;4957983;28;92643;-37
2022/04/07 12:51:21;;;;;;;6.80;2.30;;;10.90;99.90;;;;;;4958363;28;94718;-36
2022/04/07 12:53:46;;;;;;;5.60;2.42;;;10.90;99.90;;;;;;4957363;28;94692;-34
2022/04/07 12:56:25;;;;;;;17.48;3.28;;;11.00;99.90;;;;;;4957838;28;95737;-38
2022/04/07 12:59:09;;;;;;;11.35;3.05;;;11.40;99.90;;;;;;4958379;28;93991;-35